createdAt,value
2019-03-10T00:00:09.290Z,1005.47
2019-03-10T00:00:49.764Z,1005.43
2019-03-10T00:01:30.429Z,1005.44
2019-03-10T00:02:10.633Z,1005.41
2019-03-10T00:02:51.846Z,1005.42
2019-03-10T00:03:32.278Z,1005.4
2019-03-10T00:04:12.614Z,1005.38
2019-03-10T00:04:53.078Z,1005.42
2019-03-10T00:05:33.599Z,1005.38
2019-03-10T00:06:15.800Z,1005.38
2019-03-10T00:06:56.171Z,1005.4
2019-03-10T00:07:36.587Z,1005.4
2019-03-10T00:08:17.010Z,1005.35
2019-03-10T00:08:57.325Z,1005.26
2019-03-10T00:09:37.718Z,1005.31
2019-03-10T00:10:18.115Z,1005.32
2019-03-10T00:10:59.469Z,1005.28
2019-03-10T00:11:39.934Z,1005.3
2019-03-10T00:12:20.253Z,1005.29
2019-03-10T00:13:00.721Z,1005.24
2019-03-10T00:13:41.979Z,1005.29
2019-03-10T00:14:22.358Z,1005.27
2019-03-10T00:15:03.683Z,1005.21
2019-03-10T00:15:44.113Z,1005.2
2019-03-10T00:16:24.488Z,1005.12
2019-03-10T00:17:06.779Z,1005.08
2019-03-10T00:17:48.870Z,1005.14
2019-03-10T00:18:29.277Z,1005.11
2019-03-10T00:19:11.204Z,1005.05
2019-03-10T00:19:51.552Z,1005.01
2019-03-10T00:20:33.652Z,1005.04
2019-03-10T00:21:14.106Z,1005.03
2019-03-10T00:21:54.463Z,1005.05
2019-03-10T00:22:34.898Z,1005.03
2019-03-10T00:23:15.320Z,1005.07
2019-03-10T00:23:55.697Z,1005.03
2019-03-10T00:24:37.073Z,1004.99
2019-03-10T00:25:17.424Z,1004.99
2019-03-10T00:25:57.854Z,1005.04
2019-03-10T00:26:38.197Z,1005.04
2019-03-10T00:27:18.609Z,1005
2019-03-10T00:27:59.303Z,1005
2019-03-10T00:28:39.751Z,1004.96
2019-03-10T00:29:20.177Z,1005
2019-03-10T00:30:00.552Z,1005.02
2019-03-10T00:30:41.005Z,1004.98
2019-03-10T00:31:21.884Z,1005.05
2019-03-10T00:32:02.271Z,1004.92
2019-03-10T00:32:43.645Z,1004.96
2019-03-10T00:33:24.030Z,1004.98
2019-03-10T00:34:04.440Z,1004.91
2019-03-10T00:34:45.771Z,1004.88
2019-03-10T00:35:26.212Z,1004.83
2019-03-10T00:36:06.602Z,1004.86
2019-03-10T00:36:47.032Z,1004.82
2019-03-10T00:40:21.426Z,1004.81
2019-03-10T00:41:01.450Z,1004.79
2019-03-10T00:41:41.876Z,1004.84
2019-03-10T00:42:22.262Z,1004.81
2019-03-10T00:43:02.694Z,1004.78
2019-03-10T00:43:43.054Z,1004.8
2019-03-10T00:44:23.452Z,1004.76
2019-03-10T00:45:03.858Z,1004.75
2019-03-10T00:45:44.273Z,1004.75
2019-03-10T00:46:24.962Z,1004.73
2019-03-10T00:47:05.637Z,1004.77
2019-03-10T00:47:46.029Z,1004.71
2019-03-10T00:48:26.362Z,1004.76
2019-03-10T00:49:06.716Z,1004.79
2019-03-10T00:49:47.154Z,1004.89
2019-03-10T00:50:29.352Z,1004.87
2019-03-10T00:51:09.803Z,1004.89
2019-03-10T00:51:51.082Z,1004.85
2019-03-10T00:52:31.456Z,1004.82
2019-03-10T00:53:11.836Z,1004.82
2019-03-10T00:53:53.257Z,1004.84
2019-03-10T00:54:33.616Z,1004.8
2019-03-10T00:55:14.102Z,1004.73
2019-03-10T00:55:55.365Z,1004.78
2019-03-10T00:56:35.788Z,1004.77
2019-03-10T00:57:16.179Z,1004.71
2019-03-10T00:57:56.594Z,1004.7
2019-03-10T00:58:37.009Z,1004.7
2019-03-10T00:59:17.412Z,1004.73
2019-03-10T01:00:00.452Z,1004.76
2019-03-10T01:00:39.170Z,1004.71
2019-03-10T01:01:19.647Z,1004.74
2019-03-10T01:01:59.988Z,1004.74
2019-03-10T01:02:40.369Z,1004.73
2019-03-10T01:03:20.762Z,1004.77
2019-03-10T01:04:02.139Z,1004.69
2019-03-10T01:04:42.517Z,1004.7
2019-03-10T01:05:24.657Z,1004.66
2019-03-10T01:06:05.072Z,1004.67
2019-03-10T01:06:45.452Z,1004.64
2019-03-10T01:07:26.753Z,1004.61
2019-03-10T01:08:07.192Z,1004.63
2019-03-10T01:08:47.579Z,1004.61
2019-03-10T01:09:27.983Z,1004.64
2019-03-10T01:10:08.339Z,1004.62
2019-03-10T01:10:49.722Z,1004.64
2019-03-10T01:11:30.088Z,1004.59
2019-03-10T01:12:10.478Z,1004.61
2019-03-10T01:12:50.833Z,1004.56
2019-03-10T01:13:31.273Z,1004.55
2019-03-10T01:14:11.729Z,1004.5
2019-03-10T01:14:52.076Z,1004.46
2019-03-10T01:15:32.446Z,1004.48
2019-03-10T01:16:12.831Z,1004.48
2019-03-10T01:16:53.207Z,1004.41
2019-03-10T01:17:33.580Z,1004.41
2019-03-10T01:18:13.959Z,1004.46
2019-03-10T01:18:54.319Z,1004.47
2019-03-10T01:19:34.763Z,1004.46
2019-03-10T01:20:15.154Z,1004.43
2019-03-10T01:20:55.504Z,1004.44
2019-03-10T01:21:35.896Z,1004.41
2019-03-10T01:22:16.282Z,1004.38
2019-03-10T01:22:56.664Z,1004.39
2019-03-10T01:23:37.979Z,1004.31
2019-03-10T01:24:18.394Z,1004.3
2019-03-10T01:24:58.817Z,1004.3
2019-03-10T01:25:39.247Z,1004.26
2019-03-10T01:26:19.532Z,1004.23
2019-03-10T01:26:59.944Z,1004.21
2019-03-10T01:27:40.363Z,1004.19
2019-03-10T01:28:20.726Z,1004.15
2019-03-10T01:29:01.075Z,1004.18
2019-03-10T01:29:41.474Z,1004.19
2019-03-10T01:30:21.843Z,1004.14
2019-03-10T01:31:02.272Z,1004.11
2019-03-10T01:31:42.661Z,1004.05
2019-03-10T01:32:23.036Z,1004.02
2019-03-10T01:33:03.407Z,1003.95
2019-03-10T01:33:43.794Z,1003.98
2019-03-10T01:34:25.232Z,1003.95
2019-03-10T01:35:05.615Z,1003.93
2019-03-10T01:35:46.043Z,1003.84
2019-03-10T01:36:28.400Z,1003.83
2019-03-10T01:37:08.747Z,1003.8
2019-03-10T01:37:49.152Z,1003.74
2019-03-10T01:38:30.600Z,1003.72
2019-03-10T01:39:10.970Z,1003.72
2019-03-10T01:39:52.265Z,1003.65
2019-03-10T01:40:32.619Z,1003.63
2019-03-10T01:41:13.039Z,1003.63
2019-03-10T01:41:53.342Z,1003.6
2019-03-10T01:42:33.727Z,1003.54
2019-03-10T01:43:14.122Z,1003.55
2019-03-10T01:43:55.427Z,1003.53
2019-03-10T01:44:35.864Z,1003.49
2019-03-10T01:45:16.172Z,1003.46
2019-03-10T01:49:02.633Z,1003.3
2019-03-10T01:49:54.721Z,1003.36
2019-03-10T01:53:43.387Z,1003.17
2019-03-10T01:54:23.676Z,1003.13
2019-03-10T01:55:04.206Z,1003.13
2019-03-10T01:55:44.791Z,1003.11
2019-03-10T01:56:25.356Z,1003.12
2019-03-10T01:57:09.332Z,1003.13
2019-03-10T01:57:50.149Z,1003.07
2019-03-10T01:58:30.596Z,1003.1
2019-03-10T01:59:11.118Z,1003.05
2019-03-10T01:59:51.531Z,1003
2019-03-10T02:00:32.086Z,1002.96
2019-03-10T02:01:12.697Z,1002.93
2019-03-10T02:01:53.204Z,1002.92
2019-03-10T02:02:33.580Z,1002.91
2019-03-10T02:03:14.250Z,1002.85
2019-03-10T02:03:54.748Z,1002.87
2019-03-10T02:04:35.313Z,1002.82
2019-03-10T02:05:15.374Z,1002.81
2019-03-10T02:05:55.963Z,1002.85
2019-03-10T02:06:36.551Z,1002.78
2019-03-10T02:07:17.187Z,1002.76
2019-03-10T02:09:22.829Z,1002.64
2019-03-10T02:10:12.185Z,1002.65
2019-03-10T02:10:53.894Z,1002.63
2019-03-10T02:11:34.306Z,1002.58
2019-03-10T02:12:14.774Z,1002.61
2019-03-10T02:12:55.426Z,1002.62
2019-03-10T02:13:35.809Z,1002.52
2019-03-10T02:14:17.532Z,1002.52
2019-03-10T02:14:57.226Z,1002.47
2019-03-10T02:15:37.622Z,1002.47
2019-03-10T02:16:18.104Z,1002.48
2019-03-10T02:16:59.383Z,1002.46
2019-03-10T02:17:39.287Z,1002.43
2019-03-10T02:20:14.607Z,1002.43
2019-03-10T02:20:53.835Z,1002.41
2019-03-10T02:21:34.171Z,1002.34
2019-03-10T02:22:15.486Z,1002.33
2019-03-10T02:22:55.926Z,1002.33
2019-03-10T02:23:36.310Z,1002.31
2019-03-10T02:25:56.151Z,1002.26
2019-03-10T02:26:36.526Z,1002.22
2019-03-10T02:27:16.916Z,1002.19
2019-03-10T02:29:40.153Z,1002.14
2019-03-10T02:30:21.664Z,1002.12
2019-03-10T02:31:02.179Z,1002.09
2019-03-10T02:31:42.545Z,1002.08
2019-03-10T02:32:23.043Z,1002.04
2019-03-10T02:33:03.693Z,1001.99
2019-03-10T02:33:43.942Z,1001.97
2019-03-10T02:34:24.292Z,1001.96
2019-03-10T02:35:04.714Z,1001.93
2019-03-10T02:35:45.044Z,1001.92
2019-03-10T02:37:41.956Z,1001.85
2019-03-10T02:38:25.854Z,1001.84
2019-03-10T02:39:06.254Z,1001.76
2019-03-10T02:39:46.710Z,1001.76
2019-03-10T02:40:27.257Z,1001.76
2019-03-10T02:43:01.195Z,1001.68
2019-03-10T02:43:52.312Z,1001.69
2019-03-10T02:44:37.427Z,1001.65
2019-03-10T02:45:17.135Z,1001.63
2019-03-10T02:45:57.749Z,1001.58
2019-03-10T02:46:38.227Z,1001.4
2019-03-10T02:47:18.622Z,1001.45
2019-03-10T02:47:59.035Z,1001.41
2019-03-10T02:48:39.486Z,1001.45
2019-03-10T02:50:34.093Z,1001.44
2019-03-10T02:51:14.493Z,1001.35
2019-03-10T02:51:56.680Z,1001.4
2019-03-10T02:52:37.087Z,1001.4
2019-03-10T02:53:17.541Z,1001.38
2019-03-10T02:53:58.831Z,1001.42
2019-03-10T02:54:39.229Z,1001.42
2019-03-10T02:55:19.630Z,1001.39
2019-03-10T02:56:00.114Z,1001.34
2019-03-10T02:56:40.461Z,1001.3
2019-03-10T02:57:22.557Z,1001.28
2019-03-10T02:58:02.969Z,1001.31
2019-03-10T02:58:43.367Z,1001.27
2019-03-10T02:59:23.742Z,1001.29
2019-03-10T03:00:04.113Z,1001.26
2019-03-10T03:00:45.432Z,1001.21
2019-03-10T03:01:25.843Z,1001.18
2019-03-10T03:02:06.226Z,1001.12
2019-03-10T03:02:47.512Z,1001.16
2019-03-10T03:03:27.913Z,1001.15
2019-03-10T03:04:08.279Z,1001.14
2019-03-10T03:04:48.741Z,1001.07
2019-03-10T03:05:29.105Z,1001.07
2019-03-10T03:06:09.463Z,1001.05
2019-03-10T03:06:49.900Z,1001.02
2019-03-10T03:07:30.413Z,1000.98
2019-03-10T03:08:10.695Z,1000.99
2019-03-10T03:12:15.474Z,1000.93
2019-03-10T03:12:56.635Z,1000.92
2019-03-10T03:13:37.057Z,1000.91
2019-03-10T03:14:17.576Z,1000.89
2019-03-10T03:14:58.079Z,1000.89
2019-03-10T03:15:38.554Z,1000.84
2019-03-10T03:16:19.159Z,1000.83
2019-03-10T03:16:59.774Z,1000.83
2019-03-10T03:17:40.277Z,1000.85
2019-03-10T03:18:20.700Z,1000.77
2019-03-10T03:19:01.244Z,1000.74
2019-03-10T03:19:41.637Z,1000.71
2019-03-10T03:20:21.990Z,1000.68
2019-03-10T03:21:02.697Z,1000.68
2019-03-10T03:21:43.926Z,1000.64
2019-03-10T03:22:23.822Z,1000.65
2019-03-10T03:23:04.225Z,1000.63
2019-03-10T03:23:44.581Z,1000.65
2019-03-10T03:24:24.917Z,1000.63
2019-03-10T03:25:05.375Z,1000.65
2019-03-10T03:25:45.890Z,1000.6
2019-03-10T03:26:26.163Z,1000.58
2019-03-10T03:27:06.750Z,1000.56
2019-03-10T03:27:47.095Z,1000.54
2019-03-10T03:28:27.711Z,1000.54
2019-03-10T03:29:08.530Z,1000.47
2019-03-10T03:29:49.304Z,1000.46
2019-03-10T03:30:29.551Z,1000.44
2019-03-10T03:31:10.030Z,1000.4
2019-03-10T03:31:50.764Z,1000.34
2019-03-10T03:32:31.329Z,1000.29
2019-03-10T03:33:11.819Z,1000.27
2019-03-10T03:33:52.187Z,1000.24
2019-03-10T03:34:32.590Z,1000.23
2019-03-10T03:35:12.976Z,1000.23
2019-03-10T03:35:53.487Z,1000.21
2019-03-10T03:36:33.948Z,1000.16
2019-03-10T03:37:14.325Z,1000.14
2019-03-10T03:37:55.750Z,1000.11
2019-03-10T03:38:35.309Z,1000.15
2019-03-10T03:39:15.804Z,1000.06
2019-03-10T03:39:56.162Z,1000.1
2019-03-10T03:40:36.618Z,1000.06
2019-03-10T03:41:17.022Z,1000.06
2019-03-10T03:41:57.471Z,1000.06
2019-03-10T03:42:37.813Z,1000.07
2019-03-10T03:43:18.336Z,1000.09
2019-03-10T03:43:59.499Z,1000.07
2019-03-10T03:44:39.836Z,1000.02
2019-03-10T03:45:20.222Z,1000.07
2019-03-10T03:46:00.625Z,999.97
2019-03-10T03:46:41.122Z,999.99
2019-03-10T03:47:21.666Z,999.94
2019-03-10T03:48:02.058Z,999.97
2019-03-10T03:48:42.481Z,999.92
2019-03-10T03:49:22.839Z,999.91
2019-03-10T03:50:03.224Z,999.89
2019-03-10T03:50:43.640Z,999.89
2019-03-10T03:51:24.029Z,999.9
2019-03-10T03:52:04.411Z,999.86
2019-03-10T03:52:44.826Z,999.87
2019-03-10T03:53:25.188Z,999.78
2019-03-10T03:54:05.572Z,999.76
2019-03-10T03:54:46.075Z,999.73
2019-03-10T03:55:26.427Z,999.7
2019-03-10T03:56:06.797Z,999.66
2019-03-10T03:56:47.643Z,999.64
2019-03-10T03:57:28.044Z,999.63
2019-03-10T03:58:08.751Z,999.59
2019-03-10T03:58:49.150Z,999.57
2019-03-10T03:59:29.499Z,999.49
2019-03-10T04:00:09.886Z,999.4
2019-03-10T04:00:50.364Z,999.42
2019-03-10T04:01:30.769Z,999.39
2019-03-10T04:02:11.161Z,999.39
2019-03-10T04:02:51.716Z,999.34
2019-03-10T04:03:32.075Z,999.3
2019-03-10T04:04:12.503Z,999.32
2019-03-10T04:04:52.843Z,999.29
2019-03-10T04:05:33.701Z,999.28
2019-03-10T04:06:14.134Z,999.26
2019-03-10T04:06:54.674Z,999.25
2019-03-10T04:07:34.934Z,999.25
2019-03-10T04:08:15.344Z,999.26
2019-03-10T04:08:55.741Z,999.21
2019-03-10T04:09:36.156Z,999.19
2019-03-10T04:10:16.510Z,999.2
2019-03-10T04:10:56.962Z,999.24
2019-03-10T04:11:37.323Z,999.17
2019-03-10T04:12:17.754Z,999.2
2019-03-10T04:12:58.164Z,999.21
2019-03-10T04:13:38.621Z,999.2
2019-03-10T04:14:19.048Z,999.17
2019-03-10T04:14:59.471Z,999.18
2019-03-10T04:15:39.891Z,999.19
2019-03-10T04:16:20.553Z,999.18
2019-03-10T04:17:00.857Z,999.15
2019-03-10T04:17:41.263Z,999.13
2019-03-10T04:18:21.623Z,999.13
2019-03-10T04:19:02.061Z,999.1
2019-03-10T04:19:42.426Z,999.06
2019-03-10T04:20:23.721Z,999.04
2019-03-10T04:21:04.499Z,999.04
2019-03-10T04:21:48.795Z,998.98
2019-03-10T04:22:30.918Z,998.99
2019-03-10T04:23:11.387Z,998.97
2019-03-10T04:23:59.646Z,998.95
2019-03-10T04:24:41.541Z,998.93
2019-03-10T04:25:22.164Z,998.94
2019-03-10T04:26:03.204Z,998.86
2019-03-10T04:26:43.498Z,998.86
2019-03-10T05:19:22.105Z,996.4
2019-03-10T05:24:50.963Z,996.35
2019-03-10T05:25:31.107Z,996.3
2019-03-10T05:26:11.495Z,996.25
2019-03-10T05:26:51.796Z,996.18
2019-03-10T05:27:32.168Z,996.14
2019-03-10T05:28:12.560Z,996.08
2019-03-10T05:28:52.929Z,996.02
2019-03-10T05:29:44.049Z,995.97
2019-03-10T05:30:25.564Z,995.98
2019-03-10T05:31:05.866Z,995.96
2019-03-10T05:32:03.034Z,995.93
2019-03-10T05:32:44.429Z,995.92
2019-03-10T05:45:03.168Z,995.52
2019-03-10T05:45:54.776Z,995.35
2019-03-10T05:46:41.166Z,995.52
2019-03-10T05:47:21.641Z,995.47
2019-03-10T05:48:01.993Z,995.44
2019-03-10T05:48:42.414Z,995.37
2019-03-10T05:49:22.761Z,995.32
2019-03-10T05:50:03.192Z,995.33
2019-03-10T05:50:43.681Z,995.26
2019-03-10T05:51:24.128Z,995.29
2019-03-10T05:52:04.571Z,995.27
2019-03-10T05:52:45.134Z,995.24
2019-03-10T05:53:25.905Z,995.22
2019-03-10T05:54:06.342Z,995.12
2019-03-10T05:54:46.796Z,995.09
2019-03-10T05:55:27.295Z,995.17
2019-03-10T05:56:07.656Z,995.24
2019-03-10T05:56:48.140Z,995.32
2019-03-10T05:57:28.562Z,995.37
2019-03-10T05:58:08.920Z,995.43
2019-03-10T05:58:49.389Z,995.36
2019-03-10T05:59:29.899Z,994.99
2019-03-10T06:00:11.440Z,994.78
2019-03-10T06:00:52.113Z,994.73
2019-03-10T06:01:32.614Z,994.71
2019-03-10T06:02:13.476Z,994.99
2019-03-10T06:02:55.691Z,995.33
2019-03-10T06:03:36.300Z,995.36
2019-03-10T06:04:17.662Z,995.31
2019-03-10T06:04:58.594Z,995.3
2019-03-10T06:05:38.637Z,995.22
2019-03-10T06:06:19.070Z,995.25
2019-03-10T06:06:59.529Z,995.2
2019-03-10T06:07:39.992Z,995.11
2019-03-10T06:10:13.181Z,994.84
2019-03-10T06:10:58.282Z,994.77
2019-03-10T06:11:38.724Z,994.67
2019-03-10T06:12:19.286Z,994.61
2019-03-10T06:13:01.024Z,994.53
2019-03-10T06:13:41.323Z,994.57
2019-03-10T06:14:22.049Z,994.59
2019-03-10T06:15:03.114Z,994.63
2019-03-10T06:15:43.538Z,994.71
2019-03-10T06:16:23.899Z,994.75
2019-03-10T06:17:04.337Z,994.82
2019-03-10T06:17:44.677Z,994.81
2019-03-10T06:18:25.164Z,994.69
2019-03-10T06:19:07.938Z,994.49
2019-03-10T06:19:47.850Z,994.6
2019-03-10T06:20:28.251Z,994.58
2019-03-10T06:21:08.703Z,994.53
2019-03-10T06:21:49.274Z,994.48
2019-03-10T06:22:29.570Z,994.4
2019-03-10T06:23:10.080Z,994.28
2019-03-10T06:23:50.550Z,994.2
2019-03-10T06:24:31.345Z,994.27
2019-03-10T06:25:12.167Z,994.25
2019-03-10T06:25:53.101Z,994.23
2019-03-10T06:26:33.476Z,994.14
2019-03-10T06:27:14.251Z,994.01
2019-03-10T06:27:55.122Z,993.93
2019-03-10T06:28:35.680Z,994.02
2019-03-10T06:29:16.255Z,994.13
2019-03-10T06:29:56.851Z,994.12
2019-03-10T06:30:37.249Z,994.15
2019-03-10T06:31:17.802Z,994.02
2019-03-10T06:31:58.432Z,993.85
2019-03-10T06:32:38.861Z,993.82
2019-03-10T06:33:19.436Z,993.78
2019-03-10T06:33:59.966Z,993.71
2019-03-10T06:34:41.274Z,993.64
2019-03-10T06:38:21.178Z,993.57
2019-03-10T06:39:10.307Z,993.63
2019-03-10T06:39:48.742Z,993.69
2019-03-10T06:40:32.327Z,993.66
2019-03-10T06:41:09.800Z,993.7
2019-03-10T06:41:50.675Z,993.79
2019-03-10T06:42:31.409Z,993.76
2019-03-10T06:43:11.715Z,993.73
2019-03-10T06:43:52.225Z,993.68
2019-03-10T06:44:32.862Z,993.76
2019-03-10T06:45:13.241Z,993.65
2019-03-10T06:45:54.057Z,993.64
2019-03-10T06:46:35.154Z,993.65
2019-03-10T06:47:16.416Z,993.58
2019-03-10T06:47:56.960Z,993.63
2019-03-10T06:48:38.658Z,993.58
2019-03-10T06:49:19.490Z,993.57
2019-03-10T06:50:00.801Z,993.58
2019-03-10T06:50:41.745Z,993.57
2019-03-10T06:51:21.798Z,993.5
2019-03-10T06:52:06.465Z,993.48
2019-03-10T06:52:47.356Z,993.45
2019-03-10T06:53:30.113Z,993.46
2019-03-10T06:55:42.353Z,993.4
2019-03-10T06:56:31.275Z,993.47
2019-03-10T06:57:22.512Z,993.41
2019-03-10T06:58:12.876Z,993.36
2019-03-10T06:59:05.517Z,993.4
2019-03-10T06:59:54.484Z,993.45
2019-03-10T07:00:48.089Z,993.38
2019-03-10T07:03:14.281Z,993.2
2019-03-10T07:04:06.605Z,993.18
2019-03-10T07:06:20.800Z,993.21
2019-03-10T07:16:45.780Z,992.97
2019-03-10T07:17:26.047Z,992.91
2019-03-10T07:18:07.402Z,992.99
2019-03-10T07:18:47.493Z,992.87
2019-03-10T07:19:27.861Z,992.8
2019-03-10T07:20:08.645Z,992.79
2019-03-10T07:20:49.077Z,992.78
2019-03-10T07:21:33.208Z,992.77
2019-03-10T07:22:13.883Z,992.79
2019-03-10T07:22:55.777Z,992.8
2019-03-10T07:23:36.630Z,992.8
2019-03-10T07:24:19.021Z,992.82
2019-03-10T07:25:01.117Z,992.8
2019-03-10T07:25:41.463Z,992.8
2019-03-10T07:26:21.924Z,992.81
2019-03-10T07:27:02.500Z,992.81
2019-03-10T07:27:43.613Z,992.8
2019-03-10T07:28:24.085Z,992.71
2019-03-10T07:29:04.524Z,992.72
2019-03-10T07:29:44.980Z,992.72
2019-03-10T07:30:25.799Z,992.64
2019-03-10T07:31:06.372Z,992.56
2019-03-10T07:31:46.677Z,992.59
2019-03-10T07:32:27.095Z,992.53
2019-03-10T07:33:07.402Z,992.57
2019-03-10T07:33:47.900Z,992.57
2019-03-10T07:34:28.413Z,992.58
2019-03-10T07:35:10.050Z,992.62
2019-03-10T07:35:50.847Z,992.51
2019-03-10T07:42:34.791Z,992.48
2019-03-10T07:46:48.325Z,992.45
2019-03-10T07:47:31.583Z,992.45
2019-03-10T07:48:11.196Z,992.4
2019-03-10T07:48:51.567Z,992.36
2019-03-10T07:49:32.189Z,992.36
2019-03-10T07:50:13.196Z,992.34
2019-03-10T07:50:53.579Z,992.32
2019-03-10T07:51:33.973Z,992.37
2019-03-10T07:52:20.007Z,992.3
2019-03-10T07:52:55.587Z,992.37
2019-03-10T07:53:36.067Z,992.38
2019-03-10T07:54:17.267Z,992.38
2019-03-10T07:54:57.672Z,992.37
2019-03-10T07:55:38.567Z,992.35
2019-03-10T07:56:21.776Z,992.39
2019-03-10T07:57:02.410Z,992.35
2019-03-10T07:57:43.012Z,992.33
2019-03-10T07:58:26.959Z,992.3
2019-03-10T07:59:06.442Z,992.3
2019-03-10T07:59:46.859Z,992.25
2019-03-10T08:00:27.352Z,992.27
2019-03-10T08:01:07.786Z,992.27
2019-03-10T08:01:48.473Z,992.25
2019-03-10T08:02:30.740Z,992.12
2019-03-10T08:03:16.701Z,992.23
2019-03-10T08:03:58.216Z,992.23
2019-03-10T08:04:44.045Z,992.13
2019-03-10T08:05:27.859Z,992.15
2019-03-10T08:06:09.411Z,992.14
2019-03-10T08:06:49.652Z,992.07
2019-03-10T08:07:30.100Z,992.02
2019-03-10T08:08:11.290Z,991.92
2019-03-10T08:08:51.690Z,992.12
2019-03-10T08:09:34.155Z,991.98
2019-03-10T08:10:15.251Z,992.02
2019-03-10T08:10:55.663Z,992.01
2019-03-10T08:11:36.306Z,991.95
2019-03-10T08:12:17.134Z,991.91
2019-03-10T08:12:59.773Z,992.04
2019-03-10T08:13:40.820Z,991.91
2019-03-10T08:14:21.273Z,991.92
2019-03-10T08:15:01.642Z,991.91
2019-03-10T08:15:42.038Z,991.74
2019-03-10T08:16:22.519Z,991.78
2019-03-10T08:21:46.027Z,991.75
2019-03-10T08:25:28.356Z,991.78
2019-03-10T08:26:12.124Z,991.58
2019-03-10T08:26:52.756Z,991.79
2019-03-10T08:27:33.516Z,991.82
2019-03-10T08:28:13.824Z,991.67
2019-03-10T08:28:54.421Z,991.75
2019-03-10T08:29:35.646Z,991.87
2019-03-10T08:30:16.748Z,991.75
2019-03-10T08:30:58.502Z,991.59
2019-03-10T08:31:39.714Z,991.83
2019-03-10T08:32:20.408Z,991.78
2019-03-10T08:33:01.607Z,991.86
2019-03-10T08:33:45.477Z,991.94
2019-03-10T08:34:26.363Z,992.09
2019-03-10T08:35:08.642Z,991.83
2019-03-10T08:35:50.243Z,992.03
2019-03-10T08:36:31.472Z,991.69
2019-03-10T08:37:11.997Z,991.65
2019-03-10T08:37:53.137Z,991.8
2019-03-10T08:39:47.922Z,991.93
2019-03-10T08:40:31.011Z,991.93
2019-03-10T08:41:11.389Z,992.03
2019-03-10T08:41:51.800Z,992.06
2019-03-10T08:42:34.302Z,991.55
2019-03-10T08:43:14.856Z,992
2019-03-10T08:43:55.185Z,992.1
2019-03-10T08:44:35.736Z,991.96
2019-03-10T08:45:16.299Z,992.04
2019-03-10T08:45:56.609Z,991.78
2019-03-10T08:46:37.106Z,991.92
2019-03-10T08:47:17.617Z,991.82
2019-03-10T08:47:58.359Z,991.86
2019-03-10T08:48:38.483Z,991.98
2019-03-10T08:49:19.073Z,991.75
2019-03-10T08:50:00.980Z,991.89
2019-03-10T08:50:42.970Z,991.81
2019-03-10T08:51:24.039Z,991.75
2019-03-10T08:52:06.158Z,991.64
2019-03-10T08:52:46.854Z,991.75
2019-03-10T08:53:28.987Z,991.57
2019-03-10T08:54:09.394Z,991.56
2019-03-10T08:54:49.842Z,991.83
2019-03-10T08:55:30.316Z,991.47
2019-03-10T08:56:12.672Z,991.71
2019-03-10T08:56:53.107Z,991.29
2019-03-10T08:57:33.640Z,991.66
2019-03-10T08:58:13.960Z,991.88
2019-03-10T08:58:54.469Z,991.94
2019-03-10T08:59:34.936Z,991.85
2019-03-10T09:00:15.220Z,991.58
2019-03-10T09:00:55.614Z,991.87
2019-03-10T09:01:37.218Z,991.84
2019-03-10T09:02:17.760Z,991.86
2019-03-10T09:04:47.692Z,991.84
2019-03-10T09:05:27.780Z,992.15
2019-03-10T09:06:09.129Z,991.86
2019-03-10T09:06:49.534Z,991.75
2019-03-10T09:07:31.550Z,992.03
2019-03-10T09:08:12.093Z,992
2019-03-10T09:08:53.435Z,991.75
2019-03-10T09:09:35.642Z,991.95
2019-03-10T09:10:16.063Z,991.95
2019-03-10T09:10:58.391Z,991.84
2019-03-10T09:11:39.709Z,991.79
2019-03-10T09:12:20.332Z,991.97
2019-03-10T09:13:02.752Z,991.83
2019-03-10T09:13:43.129Z,992.2
2019-03-10T09:14:23.547Z,991.93
2019-03-10T09:15:04.031Z,991.94
2019-03-10T09:15:44.394Z,991.91
2019-03-10T09:16:25.317Z,991.71
2019-03-10T09:17:05.558Z,991.86
2019-03-10T09:17:46.051Z,991.88
2019-03-10T09:18:26.349Z,991.93
2019-03-10T09:19:08.584Z,991.98
2019-03-10T09:19:49.190Z,991.86
2019-03-10T09:20:31.081Z,991.67
2019-03-10T09:21:11.423Z,991.84
2019-03-10T09:21:51.930Z,991.91
2019-03-10T09:22:32.296Z,991.72
2019-03-10T09:23:14.684Z,991.92
2019-03-10T09:23:57.178Z,991.89
2019-03-10T09:24:37.746Z,991.75
2019-03-10T09:25:18.071Z,991.74
2019-03-10T09:25:58.572Z,991.78
2019-03-10T09:26:38.994Z,991.84
2019-03-10T09:27:20.046Z,991.71
2019-03-10T09:28:00.885Z,991.7
2019-03-10T09:28:41.291Z,991.64
2019-03-10T09:29:23.557Z,991.84
2019-03-10T09:30:04.086Z,991.82
2019-03-10T09:30:47.215Z,991.72
2019-03-10T09:31:27.630Z,991.67
2019-03-10T09:32:09.508Z,991.81
2019-03-10T09:32:50.265Z,991.89
2019-03-10T09:33:30.709Z,991.69
2019-03-10T09:34:11.021Z,991.75
2019-03-10T09:34:51.519Z,991.77
2019-03-10T09:35:33.760Z,991.78
2019-03-10T09:36:14.225Z,991.73
2019-03-10T09:36:54.743Z,991.74
2019-03-10T09:37:36.220Z,991.6
2019-03-10T09:38:16.672Z,991.14
2019-03-10T09:39:00.649Z,991.46
2019-03-10T09:39:41.051Z,991.56
2019-03-10T09:40:21.537Z,991.59
2019-03-10T09:41:02.750Z,991.32
2019-03-10T09:41:44.962Z,991.66
2019-03-10T09:42:25.389Z,991.61
2019-03-10T09:43:07.841Z,991.83
2019-03-10T09:43:48.246Z,991.71
2019-03-10T09:44:28.877Z,991.7
2019-03-10T09:45:09.544Z,991.74
2019-03-10T09:45:49.635Z,991.69
2019-03-10T09:46:30.083Z,991.76
2019-03-10T10:16:33.100Z,990.97
2019-03-10T10:17:15.072Z,991.21
2019-03-10T10:17:55.548Z,991.23
2019-03-10T10:18:35.914Z,991.35
2019-03-10T10:19:16.364Z,991.34
2019-03-10T10:19:56.976Z,991.41
2019-03-10T10:20:37.740Z,991.24
2019-03-10T10:21:21.631Z,991.35
2019-03-10T10:22:02.085Z,991.4
2019-03-10T10:22:42.540Z,991.03
2019-03-10T10:23:23.089Z,991.12
2019-03-10T10:24:03.566Z,991.37
2019-03-10T10:24:44.006Z,991.17
2019-03-10T10:25:25.347Z,991.24
2019-03-10T10:26:05.940Z,991.33
2019-03-10T10:26:46.368Z,990.89
2019-03-10T10:27:26.801Z,991.21
2019-03-10T10:28:07.131Z,991.13
2019-03-10T11:07:14.767Z,990.71
2019-03-10T11:07:56.720Z,990.76
2019-03-10T11:08:37.383Z,990.7
2019-03-10T11:09:17.723Z,990.59
2019-03-10T11:09:58.171Z,990.83
2019-03-10T11:10:39.293Z,990.53
2019-03-10T11:11:20.943Z,990.58
2019-03-10T11:12:01.034Z,990.73
2019-03-10T11:12:41.702Z,990.59
2019-03-10T11:13:21.978Z,990.57
2019-03-10T11:14:03.354Z,990.72
2019-03-10T11:14:43.879Z,990.74
2019-03-10T11:15:24.241Z,990.75
2019-03-10T11:16:04.876Z,990.41
2019-03-10T11:16:45.712Z,990.51
2019-03-10T11:17:25.915Z,990.77
2019-03-10T11:18:09.578Z,990.72
2019-03-10T11:18:47.872Z,990.75
2019-03-10T11:19:28.476Z,990.51
2019-03-10T11:20:09.182Z,990.61
2019-03-10T11:20:50.583Z,990.58
2019-03-10T11:21:30.975Z,990.31
2019-03-10T11:22:11.509Z,990.59
2019-03-10T11:22:53.047Z,990.35
2019-03-10T11:23:35.257Z,990.5
2019-03-10T11:24:15.587Z,990.59
2019-03-10T11:24:56.930Z,990.61
2019-03-10T11:25:39.246Z,990.59
2019-03-10T11:26:19.709Z,990.27
2019-03-10T11:27:00.085Z,990.29
2019-03-10T11:27:40.686Z,990.13
2019-03-10T11:28:20.994Z,990.12
2019-03-10T11:29:03.776Z,990.46
2019-03-10T11:29:42.029Z,990.6
2019-03-10T11:30:22.418Z,990.52
2019-03-10T11:31:03.094Z,990.55
2019-03-10T11:31:43.469Z,990.49
2019-03-10T11:32:23.960Z,990.39
2019-03-10T11:33:04.242Z,990.39
2019-03-10T11:33:44.841Z,990.55
2019-03-10T11:34:26.099Z,990.59
2019-03-10T11:35:06.561Z,990.75
2019-03-10T11:35:46.963Z,990.53
2019-03-10T11:36:27.654Z,990.79
2019-03-10T11:37:08.357Z,990.7
2019-03-10T11:37:48.715Z,990.67
2019-03-10T11:38:29.122Z,990.83
2019-03-10T11:39:09.598Z,990.7
2019-03-10T11:39:49.971Z,990.68
2019-03-10T11:40:30.521Z,990.3
2019-03-10T11:41:10.810Z,990.69
2019-03-10T11:41:51.323Z,990.67
2019-03-10T11:42:32.547Z,989.97
2019-03-10T11:43:12.969Z,990.88
2019-03-10T11:43:53.346Z,991.02
2019-03-10T11:44:33.812Z,990.63
2019-03-10T11:45:14.191Z,990.42
2019-03-10T11:45:54.676Z,990.71